BAW7WN LOWW-EGLL
Flight info
| Callsign | BAW7WN |
|---|---|
| Flight time | 1h 50m |
| Altitude | 36000 |
| Route | BUWUT DCT DITIS DCT RAPET DCT MASEK DCT ARPEG DCT ABNED L980 LOGAN |
| Aircraft | A321/M-SDE3FGHIRWY/LB1 |
Departure
| Time | 2026-04-22 21:06 |
|---|---|
| Airport | Vienna International Airport (LOWW) |
Arrival
| Time | 2026-04-22 22:57 |
|---|---|
| Airport | London Heathrow Airport (EGLL) |
| Time | Latitude | Longitude | Altitude | Speed | Heading |
|---|---|---|---|---|---|
| 2026-04-22 20:31 | 48.11784 | 16.56031 | 609 ft | 0 kts | 39° |
| 2026-04-22 20:56 | 48.11784 | 16.56030 | 609 ft | 0 kts | 39° |
| 2026-04-22 20:56 | 48.11782 | 16.56028 | 609 ft | 2 kts | 38° |
| 2026-04-22 20:57 | 48.11769 | 16.56015 | 609 ft | 2 kts | 34° |
| 2026-04-22 20:57 | 48.11756 | 16.56001 | 609 ft | 2 kts | 36° |
| 2026-04-22 20:57 | 48.11744 | 16.55988 | 609 ft | 2 kts | 35° |
| 2026-04-22 20:57 | 48.11731 | 16.55975 | 609 ft | 0 kts | 36° |
| 2026-04-22 20:58 | 48.11726 | 16.55963 | 609 ft | 1 kts | 110° |
| 2026-04-22 20:58 | 48.11729 | 16.55953 | 609 ft | 0 kts | 117° |
| 2026-04-22 20:59 | 48.11726 | 16.55962 | 609 ft | 1 kts | 116° |
| 2026-04-22 21:00 | 48.11724 | 16.55970 | 609 ft | 0 kts | 116° |
| 2026-04-22 21:00 | 48.11718 | 16.55989 | 609 ft | 2 kts | 116° |
| 2026-04-22 21:00 | 48.11705 | 16.56029 | 609 ft | 4 kts | 116° |
| 2026-04-22 21:00 | 48.11686 | 16.56088 | 609 ft | 6 kts | 116° |
| 2026-04-22 21:01 | 48.11662 | 16.56165 | 609 ft | 7 kts | 115° |
| 2026-04-22 21:01 | 48.11634 | 16.56254 | 609 ft | 9 kts | 115° |
| 2026-04-22 21:01 | 48.11600 | 16.56359 | 609 ft | 10 kts | 116° |
| 2026-04-22 21:01 | 48.11565 | 16.56469 | 609 ft | 11 kts | 116° |
| 2026-04-22 21:02 | 48.11523 | 16.56593 | 609 ft | 12 kts | 118° |
| 2026-04-22 21:02 | 48.11478 | 16.56733 | 609 ft | 13 kts | 116° |
| 2026-04-22 21:02 | 48.11431 | 16.56877 | 609 ft | 14 kts | 116° |
| 2026-04-22 21:02 | 48.11380 | 16.57029 | 609 ft | 14 kts | 117° |
| 2026-04-22 21:03 | 48.11330 | 16.57186 | 609 ft | 15 kts | 116° |
| 2026-04-22 21:03 | 48.11277 | 16.57351 | 609 ft | 15 kts | 116° |
| 2026-04-22 21:03 | 48.11224 | 16.57512 | 609 ft | 13 kts | 116° |
| 2026-04-22 21:03 | 48.11156 | 16.57597 | 609 ft | 11 kts | 191° |
| 2026-04-22 21:04 | 48.11078 | 16.57538 | 609 ft | 9 kts | 220° |
| 2026-04-22 21:04 | 48.11062 | 16.57520 | 609 ft | 0 kts | 214° |
| 2026-04-22 21:05 | 48.11046 | 16.57505 | 609 ft | 8 kts | 211° |
| 2026-04-22 21:05 | 48.10965 | 16.57398 | 609 ft | 19 kts | 265° |
| 2026-04-22 21:05 | 48.11076 | 16.57042 | 609 ft | 69 kts | 295° |
| 2026-04-22 21:06 | 48.11382 | 16.56101 | 609 ft | 129 kts | 297° |
| 2026-04-22 21:06 | 48.11848 | 16.54669 | 694 ft | 169 kts | 298° |
| 2026-04-22 21:06 | 48.12447 | 16.52921 | 1139 ft | 182 kts | 298° |
| 2026-04-22 21:06 | 48.12688 | 16.50799 | 1840 ft | 194 kts | 259° |
| 2026-04-22 21:07 | 48.12016 | 16.48837 | 2470 ft | 199 kts | 246° |
| 2026-04-22 21:07 | 48.11577 | 16.46757 | 3021 ft | 188 kts | 271° |
| 2026-04-22 21:07 | 48.11619 | 16.44523 | 3420 ft | 190 kts | 282° |
| 2026-04-22 21:07 | 48.11815 | 16.42238 | 3856 ft | 196 kts | 285° |
| 2026-04-22 21:08 | 48.12052 | 16.39836 | 4191 ft | 209 kts | 285° |
| 2026-04-22 21:08 | 48.12356 | 16.37301 | 4470 ft | 228 kts | 287° |
| 2026-04-22 21:08 | 48.12719 | 16.34505 | 4876 ft | 245 kts | 285° |
| 2026-04-22 21:08 | 48.13166 | 16.31550 | 5329 ft | 256 kts | 297° |
| 2026-04-22 21:09 | 48.14392 | 16.29154 | 6054 ft | 252 kts | 320° |
| 2026-04-22 21:09 | 48.15807 | 16.27117 | 6950 ft | 252 kts | 319° |
| 2026-04-22 21:09 | 48.17059 | 16.25179 | 7662 ft | 257 kts | 317° |
| 2026-04-22 21:09 | 48.18299 | 16.23120 | 8412 ft | 261 kts | 315° |
| 2026-04-22 21:10 | 48.19638 | 16.20804 | 9207 ft | 265 kts | 315° |
| 2026-04-22 21:10 | 48.20964 | 16.18464 | 9940 ft | 269 kts | 315° |
| 2026-04-22 21:10 | 48.22218 | 16.16238 | 10504 ft | 277 kts | 315° |
| 2026-04-22 21:10 | 48.23768 | 16.14048 | 10853 ft | 289 kts | 326° |
| 2026-04-22 21:11 | 48.25536 | 16.12364 | 11164 ft | 302 kts | 335° |
| 2026-04-22 21:11 | 48.27439 | 16.10928 | 11676 ft | 309 kts | 337° |
| 2026-04-22 21:11 | 48.29382 | 16.09504 | 12325 ft | 311 kts | 337° |
| 2026-04-22 21:11 | 48.31332 | 16.08073 | 12954 ft | 314 kts | 337° |
| 2026-04-22 21:12 | 48.33295 | 16.06626 | 13532 ft | 318 kts | 337° |
| 2026-04-22 21:12 | 48.35287 | 16.05150 | 14126 ft | 321 kts | 338° |
| 2026-04-22 21:12 | 48.37295 | 16.03657 | 14716 ft | 324 kts | 338° |
| 2026-04-22 21:12 | 48.39319 | 16.02150 | 15265 ft | 328 kts | 338° |
| 2026-04-22 21:13 | 48.41351 | 16.00634 | 15823 ft | 331 kts | 338° |
| 2026-04-22 21:13 | 48.43422 | 15.99088 | 16371 ft | 334 kts | 338° |
| 2026-04-22 21:13 | 48.45514 | 15.97524 | 16911 ft | 337 kts | 338° |
| 2026-04-22 21:13 | 48.47614 | 15.95953 | 17467 ft | 340 kts | 339° |
| 2026-04-22 21:14 | 48.49733 | 15.94365 | 17967 ft | 343 kts | 339° |
| 2026-04-22 21:14 | 48.51866 | 15.92766 | 18460 ft | 346 kts | 339° |
| 2026-04-22 21:14 | 48.54024 | 15.91147 | 18956 ft | 350 kts | 339° |
| 2026-04-22 21:14 | 48.56114 | 15.89200 | 19417 ft | 360 kts | 328° |
| 2026-04-22 21:15 | 48.57964 | 15.86588 | 19894 ft | 371 kts | 317° |
| 2026-04-22 21:15 | 48.59530 | 15.83450 | 20365 ft | 378 kts | 311° |
| 2026-04-22 21:15 | 48.61019 | 15.80130 | 20799 ft | 383 kts | 310° |
| 2026-04-22 21:15 | 48.62501 | 15.76778 | 21221 ft | 387 kts | 310° |
| 2026-04-22 21:16 | 48.64002 | 15.73391 | 21653 ft | 390 kts | 310° |
| 2026-04-22 21:16 | 48.65535 | 15.69957 | 22072 ft | 393 kts | 310° |
| 2026-04-22 21:16 | 48.67057 | 15.66560 | 22477 ft | 396 kts | 310° |
| 2026-04-22 21:16 | 48.68610 | 15.63102 | 22875 ft | 400 kts | 310° |
| 2026-04-22 21:17 | 48.70134 | 15.59585 | 23266 ft | 405 kts | 308° |
| 2026-04-22 21:17 | 48.71565 | 15.55862 | 23646 ft | 410 kts | 305° |
| 2026-04-22 21:17 | 48.72955 | 15.52082 | 24023 ft | 413 kts | 305° |
| 2026-04-22 21:17 | 48.74328 | 15.48304 | 24387 ft | 416 kts | 305° |
| 2026-04-22 21:18 | 48.75736 | 15.44433 | 24759 ft | 419 kts | 305° |
| 2026-04-22 21:18 | 48.77129 | 15.40606 | 25092 ft | 422 kts | 305° |
| 2026-04-22 21:18 | 48.78563 | 15.36676 | 25421 ft | 426 kts | 305° |
| 2026-04-22 21:18 | 48.80020 | 15.32770 | 25727 ft | 427 kts | 306° |
| 2026-04-22 21:19 | 48.81633 | 15.28950 | 26021 ft | 428 kts | 310° |
| 2026-04-22 21:19 | 48.83339 | 15.25280 | 26302 ft | 430 kts | 311° |
| 2026-04-22 21:19 | 48.85105 | 15.21573 | 26610 ft | 433 kts | 312° |
| 2026-04-22 21:19 | 48.86882 | 15.17839 | 26908 ft | 436 kts | 311° |
| 2026-04-22 21:20 | 48.88651 | 15.14109 | 27194 ft | 439 kts | 311° |
| 2026-04-22 21:20 | 48.90468 | 15.10273 | 27487 ft | 441 kts | 312° |
| 2026-04-22 21:20 | 48.92310 | 15.06490 | 27771 ft | 443 kts | 313° |
| 2026-04-22 21:20 | 48.94167 | 15.02707 | 28010 ft | 447 kts | 313° |
| 2026-04-22 21:21 | 48.96051 | 14.98866 | 28279 ft | 449 kts | 313° |
| 2026-04-22 21:21 | 48.97908 | 14.95069 | 28536 ft | 452 kts | 313° |
| 2026-04-22 21:21 | 48.99794 | 14.91200 | 28787 ft | 455 kts | 313° |
| 2026-04-22 21:21 | 49.01657 | 14.87368 | 29045 ft | 457 kts | 313° |
| 2026-04-22 21:22 | 49.03562 | 14.83449 | 29310 ft | 459 kts | 313° |
| 2026-04-22 21:22 | 49.05445 | 14.79560 | 29555 ft | 462 kts | 313° |
| 2026-04-22 21:22 | 49.07354 | 14.75618 | 29777 ft | 465 kts | 313° |
| 2026-04-22 21:22 | 49.09282 | 14.71628 | 29997 ft | 467 kts | 313° |
| 2026-04-22 21:23 | 49.11186 | 14.67678 | 30237 ft | 469 kts | 313° |
| 2026-04-22 21:23 | 49.13126 | 14.63650 | 30498 ft | 471 kts | 313° |
| 2026-04-22 21:23 | 49.15062 | 14.59623 | 30776 ft | 472 kts | 313° |
| 2026-04-22 21:23 | 49.17007 | 14.55569 | 31043 ft | 473 kts | 313° |
| 2026-04-22 21:24 | 49.18948 | 14.51516 | 31336 ft | 472 kts | 313° |
| 2026-04-22 21:24 | 49.20872 | 14.47495 | 31659 ft | 471 kts | 313° |
| 2026-04-22 21:24 | 49.22774 | 14.43515 | 31957 ft | 470 kts | 313° |
| 2026-04-22 21:24 | 49.24696 | 14.39491 | 32250 ft | 469 kts | 313° |
| 2026-04-22 21:25 | 49.26623 | 14.35445 | 32527 ft | 469 kts | 313° |
| 2026-04-22 21:25 | 49.28537 | 14.31424 | 32769 ft | 468 kts | 312° |
| 2026-04-22 21:25 | 49.30436 | 14.27431 | 32987 ft | 469 kts | 312° |
| 2026-04-22 21:25 | 49.32336 | 14.23422 | 33227 ft | 468 kts | 311° |
| 2026-04-22 21:26 | 49.34236 | 14.19412 | 33457 ft | 468 kts | 311° |
| 2026-04-22 21:26 | 49.36145 | 14.15372 | 33719 ft | 467 kts | 312° |
| 2026-04-22 21:26 | 49.38039 | 14.11359 | 33978 ft | 465 kts | 311° |
| 2026-04-22 21:26 | 49.39934 | 14.07340 | 34182 ft | 465 kts | 312° |
| 2026-04-22 21:27 | 49.41801 | 14.03378 | 34348 ft | 465 kts | 311° |
| 2026-04-22 21:27 | 49.43689 | 13.99361 | 34530 ft | 465 kts | 311° |
| 2026-04-22 21:27 | 49.45587 | 13.95323 | 34657 ft | 466 kts | 312° |
| 2026-04-22 21:27 | 49.47469 | 13.91312 | 34803 ft | 467 kts | 311° |
| 2026-04-22 21:28 | 49.49372 | 13.87245 | 34968 ft | 467 kts | 311° |
| 2026-04-22 21:28 | 49.51248 | 13.83233 | 35161 ft | 467 kts | 311° |
| 2026-04-22 21:28 | 49.53126 | 13.79208 | 35362 ft | 466 kts | 311° |
| 2026-04-22 21:28 | 49.55011 | 13.75161 | 35554 ft | 465 kts | 311° |
| 2026-04-22 21:29 | 49.56898 | 13.71103 | 35705 ft | 465 kts | 311° |
| 2026-04-22 21:29 | 49.58749 | 13.67119 | 35857 ft | 465 kts | 311° |
| 2026-04-22 21:29 | 49.60626 | 13.63071 | 36055 ft | 463 kts | 311° |
| 2026-04-22 21:29 | 49.62479 | 13.59067 | 36210 ft | 463 kts | 311° |
| 2026-04-22 21:30 | 49.66203 | 13.51010 | 36296 ft | 463 kts | 310° |
| 2026-04-22 21:30 | 49.69931 | 13.42915 | 36308 ft | 464 kts | 310° |
| 2026-04-22 21:31 | 49.73660 | 13.34790 | 36308 ft | 463 kts | 310° |
| 2026-04-22 21:31 | 49.77363 | 13.26708 | 36320 ft | 465 kts | 310° |
| 2026-04-22 21:32 | 49.81083 | 13.18556 | 36309 ft | 464 kts | 309° |
| 2026-04-22 21:32 | 49.84787 | 13.10412 | 36315 ft | 464 kts | 309° |
| 2026-04-22 21:33 | 49.88486 | 13.02260 | 36305 ft | 465 kts | 309° |
| 2026-04-22 21:33 | 49.92185 | 12.94079 | 36299 ft | 465 kts | 310° |
| 2026-04-22 21:34 | 49.95882 | 12.85877 | 36293 ft | 466 kts | 310° |
| 2026-04-22 21:34 | 49.99590 | 12.77627 | 36299 ft | 465 kts | 309° |
| 2026-04-22 21:35 | 50.03260 | 12.69434 | 35970 ft | 465 kts | 309° |
| 2026-04-22 21:35 | 50.05102 | 12.65313 | 36362 ft | 465 kts | 309° |
| 2026-04-22 21:35 | 50.06926 | 12.61224 | 36327 ft | 465 kts | 310° |
| 2026-04-22 21:36 | 50.10613 | 12.52940 | 36305 ft | 465 kts | 309° |
| 2026-04-22 21:36 | 50.12427 | 12.48856 | 36024 ft | 465 kts | 309° |
| 2026-04-22 21:36 | 50.14277 | 12.44684 | 36516 ft | 465 kts | 309° |
| 2026-04-22 21:37 | 50.16054 | 12.40512 | 36405 ft | 466 kts | 307° |
| 2026-04-22 21:37 | 50.17691 | 12.36142 | 36036 ft | 468 kts | 303° |
| 2026-04-22 21:37 | 50.19151 | 12.31636 | 36155 ft | 470 kts | 298° |
| 2026-04-22 21:37 | 50.20447 | 12.26943 | 36590 ft | 473 kts | 295° |
| 2026-04-22 21:38 | 50.21553 | 12.22149 | 36255 ft | 475 kts | 291° |
| 2026-04-22 21:38 | 50.22584 | 12.17230 | 36285 ft | 475 kts | 291° |
| 2026-04-22 21:38 | 50.23581 | 12.12375 | 36639 ft | 475 kts | 291° |
| 2026-04-22 21:38 | 50.24585 | 12.07477 | 36463 ft | 473 kts | 291° |
| 2026-04-22 21:39 | 50.26590 | 11.97732 | 36363 ft | 475 kts | 291° |
| 2026-04-22 21:39 | 50.28599 | 11.87965 | 36383 ft | 474 kts | 291° |
| 2026-04-22 21:40 | 50.30615 | 11.78157 | 36329 ft | 474 kts | 291° |
| 2026-04-22 21:40 | 50.32620 | 11.68350 | 36316 ft | 474 kts | 291° |
| 2026-04-22 21:41 | 50.34598 | 11.58632 | 36316 ft | 473 kts | 291° |
| 2026-04-22 21:41 | 50.36583 | 11.48811 | 36316 ft | 473 kts | 291° |
| 2026-04-22 21:42 | 50.38555 | 11.39030 | 36316 ft | 473 kts | 291° |
| 2026-04-22 21:42 | 50.40521 | 11.29228 | 36315 ft | 473 kts | 290° |
| 2026-04-22 21:43 | 50.42467 | 11.19464 | 36319 ft | 472 kts | 290° |
| 2026-04-22 21:43 | 50.44406 | 11.09688 | 36324 ft | 471 kts | 290° |
| 2026-04-22 21:44 | 50.46337 | 10.99903 | 36323 ft | 470 kts | 290° |
| 2026-04-22 21:44 | 50.48252 | 10.90152 | 36330 ft | 471 kts | 290° |
| 2026-04-22 21:45 | 50.50172 | 10.80327 | 36335 ft | 471 kts | 290° |
| 2026-04-22 21:45 | 50.52069 | 10.70576 | 36334 ft | 469 kts | 290° |
| 2026-04-22 21:46 | 50.53965 | 10.60765 | 36335 ft | 470 kts | 290° |
| 2026-04-22 21:46 | 50.55845 | 10.51003 | 36333 ft | 468 kts | 290° |
| 2026-04-22 21:47 | 50.57715 | 10.41231 | 36335 ft | 469 kts | 290° |
| 2026-04-22 21:47 | 50.59575 | 10.31468 | 36332 ft | 468 kts | 289° |
| 2026-04-22 21:48 | 50.61422 | 10.21722 | 36335 ft | 467 kts | 289° |
| 2026-04-22 21:48 | 50.63277 | 10.11878 | 36337 ft | 471 kts | 289° |
| 2026-04-22 21:49 | 50.65145 | 10.01928 | 36339 ft | 481 kts | 289° |
| 2026-04-22 21:49 | 50.67020 | 9.91861 | 36327 ft | 472 kts | 289° |
| 2026-04-22 21:50 | 50.68832 | 9.82073 | 36333 ft | 466 kts | 289° |
| 2026-04-22 21:50 | 50.70614 | 9.72420 | 36335 ft | 463 kts | 289° |
| 2026-04-22 21:51 | 50.72400 | 9.62686 | 36335 ft | 464 kts | 289° |
| 2026-04-22 21:52 | 50.75536 | 9.48323 | 36337 ft | 463 kts | 293° |
| 2026-04-22 21:52 | 50.77725 | 9.38774 | 36341 ft | 462 kts | 293° |
| 2026-04-22 21:53 | 50.79886 | 9.29262 | 36340 ft | 462 kts | 292° |
| 2026-04-22 21:53 | 50.82038 | 9.19730 | 36341 ft | 462 kts | 292° |
| 2026-04-22 21:54 | 50.84175 | 9.10219 | 36348 ft | 461 kts | 292° |
| 2026-04-22 21:54 | 50.86294 | 9.00737 | 36340 ft | 461 kts | 292° |
| 2026-04-22 21:55 | 50.88415 | 8.91203 | 36341 ft | 460 kts | 292° |
| 2026-04-22 21:55 | 50.90523 | 8.81688 | 36341 ft | 459 kts | 292° |
| 2026-04-22 21:56 | 50.92625 | 8.72153 | 36349 ft | 459 kts | 292° |
| 2026-04-22 21:56 | 50.94716 | 8.62628 | 36344 ft | 459 kts | 292° |
| 2026-04-22 21:57 | 50.96789 | 8.53141 | 36347 ft | 458 kts | 292° |
| 2026-04-22 21:57 | 50.98851 | 8.43648 | 36346 ft | 458 kts | 292° |
| 2026-04-22 21:58 | 51.00905 | 8.34160 | 36357 ft | 457 kts | 291° |
| 2026-04-22 21:58 | 51.02823 | 8.24537 | 36345 ft | 458 kts | 289° |
| 2026-04-22 21:59 | 51.04617 | 8.14871 | 36351 ft | 457 kts | 289° |
| 2026-04-22 21:59 | 51.06399 | 8.05219 | 36351 ft | 457 kts | 289° |
| 2026-04-22 22:00 | 51.08174 | 7.95564 | 36352 ft | 456 kts | 289° |
| 2026-04-22 22:00 | 51.09941 | 7.85925 | 36358 ft | 456 kts | 289° |
| 2026-04-22 22:01 | 51.11692 | 7.76312 | 36362 ft | 456 kts | 289° |
| 2026-04-22 22:01 | 51.13449 | 7.66628 | 36359 ft | 455 kts | 289° |
| 2026-04-22 22:02 | 51.15189 | 7.56978 | 36365 ft | 455 kts | 289° |
| 2026-04-22 22:02 | 51.16917 | 7.47351 | 36359 ft | 454 kts | 289° |
| 2026-04-22 22:03 | 51.18644 | 7.37674 | 36355 ft | 454 kts | 289° |
| 2026-04-22 22:03 | 51.20354 | 7.28047 | 36356 ft | 454 kts | 288° |
| 2026-04-22 22:04 | 51.22051 | 7.18438 | 36038 ft | 453 kts | 288° |
| 2026-04-22 22:04 | 51.23743 | 7.08796 | 36221 ft | 453 kts | 288° |
| 2026-04-22 22:05 | 51.25440 | 6.99090 | 36328 ft | 455 kts | 288° |
| 2026-04-22 22:05 | 51.27124 | 6.89390 | 36356 ft | 455 kts | 288° |
| 2026-04-22 22:06 | 51.28771 | 6.79860 | 36357 ft | 454 kts | 288° |
| 2026-04-22 22:06 | 51.30425 | 6.70232 | 36360 ft | 453 kts | 288° |
| 2026-04-22 22:06 | 51.31255 | 6.65382 | 36585 ft | 453 kts | 288° |
| 2026-04-22 22:07 | 51.32079 | 6.60550 | 36461 ft | 451 kts | 288° |
| 2026-04-22 22:07 | 51.33721 | 6.50888 | 36388 ft | 450 kts | 288° |
| 2026-04-22 22:08 | 51.35344 | 6.41291 | 36370 ft | 450 kts | 288° |
| 2026-04-22 22:08 | 51.36966 | 6.31640 | 36365 ft | 450 kts | 287° |
| 2026-04-22 22:09 | 51.38573 | 6.22018 | 36366 ft | 450 kts | 287° |
| 2026-04-22 22:09 | 51.40178 | 6.12363 | 36366 ft | 449 kts | 287° |
| 2026-04-22 22:10 | 51.41761 | 6.02786 | 36368 ft | 449 kts | 287° |
| 2026-04-22 22:10 | 51.43351 | 5.93105 | 36368 ft | 448 kts | 287° |
| 2026-04-22 22:11 | 51.44928 | 5.83456 | 36373 ft | 447 kts | 287° |
| 2026-04-22 22:11 | 51.46507 | 5.73729 | 36370 ft | 447 kts | 287° |
| 2026-04-22 22:12 | 51.48052 | 5.64166 | 36373 ft | 446 kts | 287° |
| 2026-04-22 22:12 | 51.49621 | 5.54398 | 36370 ft | 451 kts | 287° |
| 2026-04-22 22:13 | 51.51189 | 5.44583 | 36368 ft | 449 kts | 287° |
| 2026-04-22 22:13 | 51.52712 | 5.34969 | 36122 ft | 444 kts | 287° |
| 2026-04-22 22:13 | 51.53466 | 5.30203 | 36265 ft | 445 kts | 287° |
| 2026-04-22 22:14 | 51.54227 | 5.25377 | 36324 ft | 447 kts | 287° |
| 2026-04-22 22:14 | 51.55754 | 5.15644 | 36366 ft | 446 kts | 287° |
| 2026-04-22 22:15 | 51.57281 | 5.05852 | 36370 ft | 446 kts | 287° |
| 2026-04-22 22:15 | 51.58768 | 4.96249 | 36371 ft | 445 kts | 287° |
| 2026-04-22 22:16 | 51.60271 | 4.86495 | 36375 ft | 445 kts | 287° |
| 2026-04-22 22:16 | 51.61744 | 4.76882 | 36379 ft | 445 kts | 287° |
| 2026-04-22 22:17 | 51.63205 | 4.67284 | 36379 ft | 445 kts | 287° |
| 2026-04-22 22:17 | 51.64663 | 4.57651 | 36378 ft | 444 kts | 287° |
| 2026-04-22 22:18 | 51.66106 | 4.48046 | 36378 ft | 443 kts | 287° |
| 2026-04-22 22:18 | 51.67548 | 4.38400 | 36381 ft | 443 kts | 287° |
| 2026-04-22 22:19 | 51.68984 | 4.28742 | 36378 ft | 443 kts | 286° |
| 2026-04-22 22:19 | 51.70414 | 4.19061 | 36379 ft | 442 kts | 286° |
| 2026-04-22 22:20 | 51.71818 | 4.09489 | 36384 ft | 442 kts | 286° |
| 2026-04-22 22:20 | 51.73220 | 3.99880 | 36376 ft | 441 kts | 286° |
| 2026-04-22 22:21 | 51.74620 | 3.90217 | 36381 ft | 441 kts | 286° |
| 2026-04-22 22:21 | 51.75998 | 3.80651 | 36380 ft | 440 kts | 286° |
| 2026-04-22 22:22 | 51.77373 | 3.71052 | 36383 ft | 439 kts | 286° |
| 2026-04-22 22:22 | 51.78730 | 3.61509 | 36383 ft | 438 kts | 286° |
| 2026-04-22 22:23 | 51.80084 | 3.51934 | 36385 ft | 438 kts | 287° |
| 2026-04-22 22:23 | 51.81426 | 3.42364 | 36384 ft | 437 kts | 286° |
| 2026-04-22 22:24 | 51.82750 | 3.32871 | 36388 ft | 436 kts | 285° |
| 2026-04-22 22:24 | 51.83856 | 3.23212 | 36386 ft | 438 kts | 280° |
| 2026-04-22 22:25 | 51.84287 | 3.13369 | 36393 ft | 440 kts | 274° |
| 2026-04-22 22:25 | 51.84020 | 3.03499 | 36390 ft | 442 kts | 268° |
| 2026-04-22 22:26 | 51.83374 | 2.93630 | 36384 ft | 442 kts | 267° |
| 2026-04-22 22:26 | 51.83038 | 2.88571 | 36181 ft | 441 kts | 267° |
| 2026-04-22 22:26 | 51.82724 | 2.83859 | 36021 ft | 438 kts | 268° |
| 2026-04-22 22:26 | 51.82397 | 2.78948 | 35841 ft | 436 kts | 268° |
| 2026-04-22 22:27 | 51.82071 | 2.74076 | 35509 ft | 433 kts | 268° |
| 2026-04-22 22:27 | 51.81745 | 2.69231 | 35049 ft | 432 kts | 268° |
| 2026-04-22 22:27 | 51.81419 | 2.64399 | 34477 ft | 434 kts | 268° |
| 2026-04-22 22:27 | 51.81089 | 2.59576 | 33803 ft | 436 kts | 269° |
| 2026-04-22 22:28 | 51.80756 | 2.54743 | 33122 ft | 437 kts | 268° |
| 2026-04-22 22:28 | 51.80416 | 2.49866 | 32428 ft | 439 kts | 269° |
| 2026-04-22 22:28 | 51.80074 | 2.44983 | 31721 ft | 440 kts | 269° |
| 2026-04-22 22:28 | 51.79728 | 2.40076 | 31002 ft | 442 kts | 269° |
| 2026-04-22 22:29 | 51.79379 | 2.35146 | 30287 ft | 442 kts | 268° |
| 2026-04-22 22:29 | 51.79029 | 2.30256 | 29784 ft | 437 kts | 268° |
| 2026-04-22 22:29 | 51.78682 | 2.25445 | 29312 ft | 432 kts | 267° |
| 2026-04-22 22:29 | 51.78345 | 2.20662 | 28824 ft | 427 kts | 268° |
| 2026-04-22 22:30 | 51.78057 | 2.15892 | 28333 ft | 422 kts | 268° |
| 2026-04-22 22:30 | 51.77791 | 2.11208 | 27856 ft | 418 kts | 268° |
| 2026-04-22 22:30 | 51.77524 | 2.06555 | 27378 ft | 414 kts | 268° |
| 2026-04-22 22:30 | 51.77257 | 2.01965 | 27055 ft | 406 kts | 268° |
| 2026-04-22 22:31 | 51.76991 | 1.97508 | 26850 ft | 394 kts | 268° |
| 2026-04-22 22:31 | 51.76732 | 1.93217 | 26716 ft | 382 kts | 268° |
| 2026-04-22 22:31 | 51.76466 | 1.88852 | 26552 ft | 370 kts | 268° |
| 2026-04-22 22:31 | 51.76214 | 1.84688 | 26322 ft | 360 kts | 268° |
| 2026-04-22 22:32 | 51.75967 | 1.80663 | 26198 ft | 347 kts | 268° |
| 2026-04-22 22:32 | 51.75731 | 1.76847 | 26064 ft | 335 kts | 268° |
| 2026-04-22 22:32 | 51.75499 | 1.73078 | 25930 ft | 336 kts | 268° |
| 2026-04-22 22:32 | 51.75273 | 1.69428 | 25779 ft | 329 kts | 268° |
| 2026-04-22 22:33 | 51.75041 | 1.65729 | 25625 ft | 328 kts | 268° |
| 2026-04-22 22:33 | 51.74813 | 1.62089 | 25420 ft | 327 kts | 268° |
| 2026-04-22 22:33 | 51.74583 | 1.58439 | 24977 ft | 328 kts | 268° |
| 2026-04-22 22:33 | 51.74351 | 1.54728 | 24458 ft | 330 kts | 268° |
| 2026-04-22 22:34 | 51.74114 | 1.50993 | 23937 ft | 332 kts | 267° |
| 2026-04-22 22:34 | 51.73875 | 1.47253 | 23442 ft | 332 kts | 267° |
| 2026-04-22 22:34 | 51.73638 | 1.43604 | 23118 ft | 327 kts | 267° |
| 2026-04-22 22:34 | 51.73397 | 1.39906 | 22573 ft | 329 kts | 266° |
| 2026-04-22 22:35 | 51.73161 | 1.36304 | 22260 ft | 324 kts | 266° |
| 2026-04-22 22:35 | 51.72927 | 1.32725 | 21952 ft | 320 kts | 265° |
| 2026-04-22 22:35 | 51.72683 | 1.29014 | 21620 ft | 315 kts | 265° |
| 2026-04-22 22:35 | 51.72441 | 1.25365 | 21264 ft | 312 kts | 265° |
| 2026-04-22 22:36 | 51.72197 | 1.21703 | 20852 ft | 310 kts | 265° |
| 2026-04-22 22:36 | 51.71965 | 1.18202 | 20474 ft | 309 kts | 264° |
| 2026-04-22 22:36 | 51.71733 | 1.14743 | 20099 ft | 308 kts | 264° |
| 2026-04-22 22:36 | 51.71500 | 1.11273 | 19568 ft | 313 kts | 264° |
| 2026-04-22 22:37 | 51.71259 | 1.07702 | 18689 ft | 329 kts | 263° |
| 2026-04-22 22:37 | 51.70995 | 1.03831 | 17828 ft | 343 kts | 263° |
| 2026-04-22 22:37 | 51.70726 | 0.99917 | 17177 ft | 348 kts | 263° |
| 2026-04-22 22:37 | 51.70458 | 0.96034 | 16680 ft | 340 kts | 262° |
| 2026-04-22 22:38 | 51.70198 | 0.92258 | 16160 ft | 333 kts | 262° |
| 2026-04-22 22:38 | 51.69944 | 0.88594 | 15809 ft | 330 kts | 262° |
| 2026-04-22 22:38 | 51.69690 | 0.84955 | 15493 ft | 326 kts | 262° |
| 2026-04-22 22:38 | 51.69427 | 0.81195 | 15060 ft | 322 kts | 262° |
| 2026-04-22 22:39 | 51.69161 | 0.77420 | 14491 ft | 320 kts | 262° |
| 2026-04-22 22:39 | 51.68895 | 0.73669 | 13941 ft | 318 kts | 262° |
| 2026-04-22 22:39 | 51.68626 | 0.69880 | 13316 ft | 314 kts | 262° |
| 2026-04-22 22:39 | 51.68358 | 0.66131 | 12608 ft | 312 kts | 262° |
| 2026-04-22 22:40 | 51.68095 | 0.62467 | 11938 ft | 310 kts | 262° |
| 2026-04-22 22:40 | 51.67833 | 0.58832 | 11328 ft | 311 kts | 262° |
| 2026-04-22 22:40 | 51.67578 | 0.55324 | 10828 ft | 313 kts | 262° |
| 2026-04-22 22:40 | 51.67326 | 0.51853 | 10481 ft | 311 kts | 262° |
| 2026-04-22 22:41 | 51.67076 | 0.48413 | 10108 ft | 309 kts | 262° |
| 2026-04-22 22:41 | 51.66825 | 0.44962 | 9650 ft | 306 kts | 262° |
| 2026-04-22 22:41 | 51.66576 | 0.41567 | 9238 ft | 299 kts | 262° |
| 2026-04-22 22:41 | 51.66335 | 0.38279 | 8867 ft | 290 kts | 262° |
| 2026-04-22 22:42 | 51.66097 | 0.35048 | 8500 ft | 289 kts | 262° |
| 2026-04-22 22:42 | 51.65859 | 0.31848 | 8145 ft | 289 kts | 261° |
| 2026-04-22 22:42 | 51.65619 | 0.28646 | 7797 ft | 290 kts | 261° |
| 2026-04-22 22:42 | 51.65378 | 0.25444 | 7438 ft | 289 kts | 261° |
| 2026-04-22 22:43 | 51.65139 | 0.22255 | 7355 ft | 281 kts | 261° |
| 2026-04-22 22:43 | 51.64906 | 0.19158 | 7352 ft | 266 kts | 261° |
| 2026-04-22 22:43 | 51.64685 | 0.16221 | 7394 ft | 260 kts | 261° |
| 2026-04-22 22:43 | 51.64484 | 0.13359 | 7340 ft | 260 kts | 262° |
| 2026-04-22 22:44 | 51.64320 | 0.10422 | 7147 ft | 259 kts | 263° |
| 2026-04-22 22:44 | 51.64169 | 0.07538 | 7066 ft | 258 kts | 263° |
| 2026-04-22 22:44 | 51.64015 | 0.04619 | 7012 ft | 258 kts | 263° |
| 2026-04-22 22:44 | 51.63861 | 0.01761 | 7006 ft | 259 kts | 263° |
| 2026-04-22 22:45 | 51.63700 | -0.01165 | 7002 ft | 259 kts | 263° |
| 2026-04-22 22:45 | 51.63536 | -0.04117 | 6998 ft | 258 kts | 263° |
| 2026-04-22 22:45 | 51.63368 | -0.07122 | 6998 ft | 258 kts | 262° |
| 2026-04-22 22:45 | 51.63199 | -0.10120 | 6994 ft | 258 kts | 262° |
| 2026-04-22 22:46 | 51.63018 | -0.13308 | 7004 ft | 258 kts | 262° |
| 2026-04-22 22:46 | 51.62840 | -0.16419 | 6997 ft | 258 kts | 262° |
| 2026-04-22 22:46 | 51.62658 | -0.19598 | 7000 ft | 258 kts | 262° |
| 2026-04-22 22:46 | 51.62471 | -0.22843 | 6999 ft | 258 kts | 262° |
| 2026-04-22 22:47 | 51.62283 | -0.26093 | 6995 ft | 258 kts | 262° |
| 2026-04-22 22:47 | 51.62094 | -0.29339 | 6993 ft | 258 kts | 262° |
| 2026-04-22 22:47 | 51.61907 | -0.32537 | 6994 ft | 258 kts | 262° |
| 2026-04-22 22:47 | 51.61723 | -0.35685 | 6993 ft | 258 kts | 262° |
| 2026-04-22 22:48 | 51.61538 | -0.38825 | 6993 ft | 258 kts | 262° |
| 2026-04-22 22:48 | 51.61354 | -0.41937 | 6992 ft | 258 kts | 262° |
| 2026-04-22 22:48 | 51.61171 | -0.44997 | 6994 ft | 258 kts | 262° |
| 2026-04-22 22:48 | 51.60988 | -0.48052 | 6995 ft | 258 kts | 262° |
| 2026-04-22 22:49 | 51.60804 | -0.51118 | 6990 ft | 258 kts | 262° |
| 2026-04-22 22:49 | 51.60617 | -0.54225 | 6991 ft | 258 kts | 262° |
| 2026-04-22 22:49 | 51.60429 | -0.57314 | 6993 ft | 258 kts | 262° |
| 2026-04-22 22:49 | 51.60242 | -0.60371 | 6988 ft | 258 kts | 262° |
| 2026-04-22 22:50 | 51.60056 | -0.63420 | 6997 ft | 258 kts | 262° |
| 2026-04-22 22:50 | 51.59871 | -0.66443 | 6985 ft | 258 kts | 261° |
| 2026-04-22 22:50 | 51.59684 | -0.69473 | 6816 ft | 260 kts | 261° |
| 2026-04-22 22:50 | 51.59495 | -0.72514 | 6410 ft | 264 kts | 261° |
| 2026-04-22 22:51 | 51.59301 | -0.75531 | 6035 ft | 265 kts | 259° |
| 2026-04-22 22:51 | 51.58557 | -0.78482 | 5674 ft | 253 kts | 223° |
| 2026-04-22 22:51 | 51.57040 | -0.80145 | 5269 ft | 242 kts | 191° |
| 2026-04-22 22:51 | 51.55281 | -0.80254 | 4963 ft | 228 kts | 168° |
| 2026-04-22 22:52 | 51.53572 | -0.79863 | 4708 ft | 224 kts | 167° |
| 2026-04-22 22:52 | 51.51915 | -0.79557 | 4458 ft | 221 kts | 169° |
| 2026-04-22 22:52 | 51.50269 | -0.79143 | 4175 ft | 213 kts | 153° |
| 2026-04-22 22:52 | 51.48999 | -0.77645 | 3855 ft | 205 kts | 130° |
| 2026-04-22 22:53 | 51.48033 | -0.75780 | 3567 ft | 201 kts | 115° |
| 2026-04-22 22:53 | 51.47680 | -0.73627 | 3326 ft | 198 kts | 97° |
| 2026-04-22 22:53 | 51.47647 | -0.71410 | 3086 ft | 197 kts | 90° |
| 2026-04-22 22:53 | 51.47698 | -0.69242 | 2739 ft | 192 kts | 90° |
| 2026-04-22 22:54 | 51.47728 | -0.67090 | 2362 ft | 191 kts | 91° |
| 2026-04-22 22:54 | 51.47737 | -0.65009 | 2100 ft | 183 kts | 91° |
| 2026-04-22 22:54 | 51.47737 | -0.63012 | 1857 ft | 176 kts | 91° |
| 2026-04-22 22:54 | 51.47735 | -0.61124 | 1713 ft | 162 kts | 91° |
| 2026-04-22 22:55 | 51.47736 | -0.59395 | 1497 ft | 150 kts | 90° |
| 2026-04-22 22:55 | 51.47736 | -0.57768 | 1255 ft | 140 kts | 90° |
| 2026-04-22 22:55 | 51.47740 | -0.54783 | 872 ft | 132 kts | 90° |
| 2026-04-22 22:56 | 51.47742 | -0.53316 | 706 ft | 131 kts | 89° |
| 2026-04-22 22:56 | 51.47744 | -0.51850 | 534 ft | 131 kts | 89° |
| 2026-04-22 22:56 | 51.47746 | -0.50376 | 363 ft | 133 kts | 90° |
| 2026-04-22 22:56 | 51.47747 | -0.48883 | 192 ft | 131 kts | 89° |
| 2026-04-22 22:57 | 51.47747 | -0.47515 | 93 ft | 115 kts | 89° |
| 2026-04-22 22:57 | 51.47759 | -0.46457 | 91 ft | 68 kts | 90° |
| 2026-04-22 22:57 | 51.47760 | -0.45958 | 91 ft | 31 kts | 90° |
| 2026-04-22 22:57 | 51.47760 | -0.45626 | 91 ft | 25 kts | 89° |
| 2026-04-22 22:58 | 51.47718 | -0.45475 | 91 ft | 10 kts | 156° |
| 2026-04-22 22:58 | 51.47630 | -0.45465 | 91 ft | 11 kts | 191° |
| 2026-04-22 22:58 | 51.47595 | -0.45584 | 91 ft | 12 kts | 274° |
| 2026-04-22 22:58 | 51.47593 | -0.45744 | 91 ft | 13 kts | 268° |
| 2026-04-22 22:59 | 51.47592 | -0.45915 | 91 ft | 14 kts | 270° |
| 2026-04-22 22:59 | 51.47561 | -0.46069 | 91 ft | 14 kts | 217° |
| 2026-04-22 22:59 | 51.47513 | -0.46214 | 91 ft | 14 kts | 260° |
| 2026-04-22 22:59 | 51.47513 | -0.46388 | 91 ft | 15 kts | 273° |
| 2026-04-22 23:00 | 51.47513 | -0.46583 | 91 ft | 16 kts | 269° |
| 2026-04-22 23:00 | 51.47477 | -0.46755 | 91 ft | 15 kts | 189° |
| 2026-04-22 23:00 | 51.47354 | -0.46725 | 91 ft | 16 kts | 174° |
| 2026-04-22 23:00 | 51.47227 | -0.46724 | 91 ft | 16 kts | 179° |
| 2026-04-22 23:01 | 51.47093 | -0.46720 | 91 ft | 17 kts | 178° |
| 2026-04-22 23:01 | 51.46971 | -0.46638 | 91 ft | 17 kts | 143° |
| 2026-04-22 23:01 | 51.46855 | -0.46510 | 91 ft | 18 kts | 144° |
| 2026-04-22 23:01 | 51.46755 | -0.46376 | 91 ft | 16 kts | 111° |
| 2026-04-22 23:02 | 51.46746 | -0.46193 | 91 ft | 15 kts | 89° |
| 2026-04-22 23:02 | 51.46753 | -0.46030 | 91 ft | 13 kts | 63° |
| 2026-04-22 23:02 | 51.46845 | -0.46006 | 91 ft | 14 kts | 333° |
| 2026-04-22 23:02 | 51.46887 | -0.46042 | 91 ft | 0 kts | 5° |
| 2026-04-22 23:03 | 51.46889 | -0.46040 | 91 ft | 0 kts | 32° |
| 2026-04-22 23:03 | 51.46897 | -0.46030 | 91 ft | 2 kts | 34° |
| 2026-04-22 23:03 | 51.46915 | -0.46009 | 91 ft | 3 kts | 42° |
| 2026-04-22 23:03 | 51.46920 | -0.45997 | 91 ft | 0 kts | 54° |
| 2026-04-22 23:04 | 51.46925 | -0.45988 | 91 ft | 0 kts | 54° |
| 2026-04-22 23:04 | 51.46929 | -0.45978 | 91 ft | 0 kts | 54° |
| 2026-04-22 23:04 | 51.46930 | -0.45976 | 91 ft | 0 kts | 54° |